Time;durP1;ratioP1;P1;durP2;ratioP2;P2;SDS_P1;SDS_P2;PMS_P1;PMS_P2;Temp;Humidity;BMP_temperature;BMP_pressure;BME280_temperature;BME280_humidity;BME280_pressure;Samples;Min_cycle;Max_cycle;Signal;HPM_P1;HPM_P2
2022/07/27 00:00:38;;;;;;;3.65;2.40;;;;;;;16.05;72.08;100489.54;1761825;81;21093;-78
2022/07/27 00:03:05;;;;;;;4.97;2.45;;;;;;;15.99;72.24;100489.90;1770032;80;21263;-78
2022/07/27 00:05:32;;;;;;;4.60;2.60;;;;;;;15.94;72.34;100490.63;1770290;79;21040;-78
2022/07/27 00:07:59;;;;;;;3.30;2.50;;;;;;;15.91;72.37;100491.29;1749414;81;22023;-79
2022/07/27 00:10:26;;;;;;;4.75;2.60;;;;;;;15.84;72.42;100487.66;1769817;81;21250;-78
2022/07/27 00:12:53;;;;;;;2.80;2.47;;;;;;;15.82;72.76;100480.75;1770083;81;21868;-79
2022/07/27 00:15:21;;;;;;;2.60;2.40;;;;;;;15.79;72.70;100486.22;1766910;79;20999;-78
2022/07/27 00:17:48;;;;;;;2.65;2.30;;;;;;;15.76;72.92;100481.11;1762683;81;21501;-78
2022/07/27 00:20:15;;;;;;;3.70;2.52;;;;;;;15.76;73.33;100487.72;1768445;80;21270;-79
2022/07/27 00:22:42;;;;;;;5.40;2.35;;;;;;;15.76;73.34;100481.95;1754967;81;21070;-78
2022/07/27 00:25:09;;;;;;;4.50;2.85;;;;;;;15.74;73.49;100481.21;1766393;79;21089;-78
2022/07/27 00:27:36;;;;;;;2.92;2.72;;;;;;;15.80;73.75;100479.53;1765040;79;21015;-78
2022/07/27 00:30:06;;;;;;;3.85;2.70;;;;;;;15.80;73.69;100480.02;1754856;81;21031;-79
2022/07/27 00:32:33;;;;;;;4.42;2.75;;;;;;;15.76;73.64;100476.67;1748351;81;21160;-79
2022/07/27 00:35:00;;;;;;;3.00;2.67;;;;;;;15.73;73.64;100483.45;1751829;79;21032;-79
2022/07/27 00:37:27;;;;;;;4.55;3.45;;;;;;;15.74;74.05;100479.89;1756775;79;21203;-78
2022/07/27 00:39:55;;;;;;;3.33;2.92;;;;;;;15.82;74.53;100482.95;1762524;81;21074;-79
2022/07/27 00:42:26;;;;;;;5.05;3.00;;;;;;;15.87;74.38;100493.71;1767495;81;21024;-78
2022/07/27 00:44:51;;;;;;;4.47;3.00;;;;;;;15.84;74.18;100488.97;1766586;79;21012;-78
2022/07/27 00:47:19;;;;;;;3.87;3.08;;;;;;;15.81;74.08;100491.80;1763452;81;21051;-78
2022/07/27 00:49:46;;;;;;;3.17;2.87;;;;;;;15.73;73.82;100483.45;1767652;81;21477;-78
2022/07/27 00:52:14;;;;;;;4.90;3.22;;;;;;;15.64;73.78;100488.39;1762167;81;21019;-78
2022/07/27 00:54:44;;;;;;;3.45;3.00;;;;;;;15.60;74.06;100485.93;1759666;81;21035;-78
2022/07/27 00:57:13;;;;;;;4.47;3.37;;;;;;;15.57;74.16;100488.75;1763769;79;21430;-79
2022/07/27 00:59:41;;;;;;;3.75;2.80;;;;;;;15.53;74.03;100488.52;1766513;81;21007;-79
2022/07/27 01:02:09;;;;;;;3.87;2.80;;;;;;;15.48;74.04;100487.08;1758989;80;21133;-79
2022/07/27 01:04:36;;;;;;;4.62;3.00;;;;;;;15.41;74.10;100493.19;1760519;81;21078;-79
2022/07/27 01:07:05;;;;;;;3.70;2.80;;;;;;;15.34;74.22;100492.65;1761184;79;21081;-79
2022/07/27 01:12:20;;;;;;;4.47;3.30;;;;;;;15.27;74.39;100489.98;1739393;81;21320;-79
2022/07/27 01:14:49;;;;;;;4.92;3.30;;;;;;;15.18;74.46;100489.99;1768016;79;21519;-79
2022/07/27 01:17:17;;;;;;;3.05;2.80;;;;;;;15.16;74.80;100488.41;1786907;80;21039;-79
2022/07/27 01:19:44;;;;;;;5.55;2.87;;;;;;;15.13;74.88;100491.19;1784841;80;21064;-79
2022/07/27 01:22:12;;;;;;;4.00;2.92;;;;;;;15.08;75.01;100486.65;1781963;80;21546;-79
2022/07/27 01:24:39;;;;;;;3.85;2.80;;;;;;;15.08;75.21;100494.09;1748263;80;21570;-79
2022/07/27 01:27:06;;;;;;;3.87;3.05;;;;;;;15.08;75.38;100498.53;1757102;81;21054;-79
2022/07/27 01:29:34;;;;;;;4.58;3.22;;;;;;;15.08;75.64;100497.20;1735918;81;21275;-78
2022/07/27 01:32:03;;;;;;;3.72;2.80;;;;;;;15.07;75.89;100496.33;1744296;81;21063;-79
2022/07/27 01:34:32;;;;;;;3.67;3.25;;;;;;;15.08;76.08;100494.09;1761313;81;21028;-79
2022/07/27 01:37:01;;;;;;;4.35;3.10;;;;;;;15.10;76.26;100497.95;1752599;81;21117;-79
2022/07/27 01:39:28;;;;;;;3.20;2.90;;;;;;;15.10;76.34;100486.95;1752808;81;21098;-79
2022/07/27 01:41:59;;;;;;;3.83;3.20;;;;;;;15.09;76.39;100487.86;1757835;81;21126;-79
2022/07/27 01:44:27;;;;;;;4.20;2.85;;;;;;;15.12;76.70;100486.84;1776025;80;21017;-79
2022/07/27 01:46:54;;;;;;;4.45;3.45;;;;;;;15.13;76.69;100489.86;1766065;80;21038;-79
2022/07/27 01:49:21;;;;;;;3.52;3.22;;;;;;;15.16;76.95;100488.41;1746015;81;21160;-79
2022/07/27 01:51:48;;;;;;;6.72;3.83;;;;;;;15.23;77.37;100487.59;1756713;81;21967;-79
2022/07/27 01:54:17;;;;;;;3.80;3.40;;;;;;;15.28;77.28;100486.87;1734463;81;21017;-79
2022/07/27 01:56:44;;;;;;;3.27;2.98;;;;;;;15.27;77.09;100487.34;1760530;80;21594;-79
2022/07/27 01:59:11;;;;;;;3.30;3.00;;;;;;;15.27;77.16;100492.62;1787509;80;21447;-79
2022/07/27 02:01:38;;;;;;;3.35;3.05;;;;;;;15.27;77.29;100496.59;1764367;80;21019;-78
2022/07/27 02:04:05;;;;;;;4.30;3.15;;;;;;;15.28;77.28;100498.75;1775324;80;21156;-79
2022/07/27 02:06:32;;;;;;;6.35;3.47;;;;;;;15.28;77.31;100490.36;1755387;80;20971;-79
2022/07/27 02:08:59;;;;;;;3.10;2.80;;;;;;;15.27;77.17;100498.34;1787711;80;21030;-79
2022/07/27 02:14:12;;;;;;;5.30;3.20;;;;;;;15.31;77.65;100494.14;1736656;81;21064;-79
2022/07/27 02:16:39;;;;;;;3.65;3.08;;;;;;;15.31;77.71;100494.14;1780687;80;21895;-79
2022/07/27 02:19:06;;;;;;;4.22;3.40;;;;;;;15.33;77.79;100505.48;1775084;80;21033;-79
2022/07/27 02:21:33;;;;;;;3.77;3.37;;;;;;;15.39;78.21;100501.66;1770772;80;21015;-79
2022/07/27 02:24:00;;;;;;;4.17;3.58;;;;;;;15.45;78.25;100503.95;1746548;81;21051;-79
2022/07/27 02:26:27;;;;;;;6.75;3.40;;;;;;;15.49;78.40;100504.17;1747115;80;21436;-79
2022/07/27 02:28:54;;;;;;;4.15;3.37;;;;;;;15.55;78.42;100507.79;1742355;81;21138;-79
2022/07/27 02:31:21;;;;;;;6.55;3.87;;;;;;;15.59;78.34;100509.78;1775623;80;20996;-79
2022/07/27 02:33:48;;;;;;;5.72;3.92;;;;;;;15.58;78.04;100506.30;1773202;79;21037;-79
2022/07/27 02:36:15;;;;;;;6.90;3.80;;;;;;;15.54;77.85;100510.50;1768027;79;20998;-79
2022/07/27 02:38:42;;;;;;;4.37;3.33;;;;;;;15.55;78.09;100511.75;1768414;80;21046;-79
2022/07/27 02:41:09;;;;;;;4.75;3.75;;;;;;;15.55;78.00;100513.55;1744376;81;21978;-79
2022/07/27 02:43:36;;;;;;;4.22;3.42;;;;;;;15.55;78.03;100517.51;1772297;79;21104;-79
2022/07/27 02:46:03;;;;;;;3.72;3.33;;;;;;;15.50;78.00;100524.36;1742995;81;21067;-79
2022/07/27 02:48:32;;;;;;;4.58;3.08;;;;;;;15.51;78.20;100524.73;1780134;80;21049;-79
2022/07/27 02:51:01;;;;;;;4.03;3.47;;;;;;;15.54;78.37;100525.88;1766025;79;21351;-79
2022/07/27 02:53:29;;;;;;;3.62;3.33;;;;;;;15.58;78.35;100522.62;1735582;81;21661;-79
2022/07/27 02:55:57;;;;;;;3.90;3.37;;;;;;;15.60;78.34;100516.75;1768401;80;21043;-79
2022/07/27 02:58:24;;;;;;;3.55;3.25;;;;;;;15.60;78.22;100520.27;1753021;81;21311;-79
2022/07/27 03:00:52;;;;;;;5.50;3.70;;;;;;;15.61;78.31;100515.84;1779552;79;21037;-79
2022/07/27 03:03:19;;;;;;;4.97;3.40;;;;;;;15.65;78.65;100516.03;1786631;79;21034;-79
2022/07/27 03:05:47;;;;;;;3.80;3.27;;;;;;;15.73;78.71;100508.56;1738580;81;21184;-79
2022/07/27 03:08:14;;;;;;;3.70;3.05;;;;;;;15.81;78.70;100508.13;1765094;80;21580;-79
2022/07/27 03:10:41;;;;;;;4.33;3.22;;;;;;;15.83;78.58;100503.14;1737353;81;21058;-79
2022/07/27 03:13:08;;;;;;;4.08;3.30;;;;;;;15.87;78.65;100504.28;1766750;80;21030;-79
2022/07/27 03:15:35;;;;;;;4.78;3.42;;;;;;;15.90;78.56;100503.62;1738322;81;21081;-79
2022/07/27 03:18:03;;;;;;;3.83;3.42;;;;;;;15.90;78.42;100510.23;1766670;80;21134;-79
2022/07/27 03:20:31;;;;;;;3.50;3.20;;;;;;;15.89;78.31;100515.63;1762799;81;21008;-79
2022/07/27 03:22:58;;;;;;;4.05;3.60;;;;;;;15.83;78.09;100519.48;1743334;81;21053;-79
2022/07/27 03:25:25;;;;;;;3.35;3.05;;;;;;;15.75;77.77;100524.34;1754115;81;21549;-79
2022/07/27 03:27:52;;;;;;;4.65;3.15;;;;;;;15.68;77.95;100522.50;1775706;80;21060;-79
2022/07/27 03:30:19;;;;;;;4.08;3.60;;;;;;;15.66;78.05;100515.56;1744871;81;21603;-79
2022/07/27 03:32:47;;;;;;;3.83;3.42;;;;;;;15.65;78.18;100517.36;1754885;81;21011;-79
2022/07/27 03:35:14;;;;;;;5.30;3.52;;;;;;;15.64;78.16;100516.98;1754894;81;21039;-79
2022/07/27 03:37:41;;;;;;;4.65;3.75;;;;;;;15.68;78.67;100512.37;1762007;81;20939;-79
2022/07/27 03:40:10;;;;;;;5.15;3.90;;;;;;;15.75;78.90;100512.45;1754905;81;21223;-79
2022/07/27 03:42:38;;;;;;;4.67;4.27;;;;;;;15.78;78.59;100517.08;1748856;81;21130;-79
2022/07/27 03:45:07;;;;;;;6.17;4.00;;;;;;;15.78;78.44;100514.92;1750437;81;20991;-79
2022/07/27 03:47:34;;;;;;;5.07;3.60;;;;;;;15.75;78.32;100514.62;1749904;81;21069;-79
2022/07/27 03:50:02;;;;;;;5.17;4.08;;;;;;;15.73;78.55;100511.20;1754998;81;21031;-79
2022/07/27 03:52:29;;;;;;;5.95;4.28;;;;;;;15.73;78.45;100518.28;1754868;81;21234;-79
2022/07/27 03:54:56;;;;;;;7.80;4.30;;;;;;;15.71;78.42;100516.19;1754779;81;21524;-79
2022/07/27 03:57:24;;;;;;;5.33;4.12;;;;;;;15.68;78.48;100517.66;1754906;81;21454;-79
2022/07/27 03:59:51;;;;;;;6.95;4.10;;;;;;;15.66;78.65;100513.80;1761838;81;21030;-79
2022/07/27 04:02:18;;;;;;;4.95;4.10;;;;;;;15.69;78.94;100507.05;1750954;81;21474;-79
2022/07/27 04:04:45;;;;;;;5.05;4.20;;;;;;;15.73;78.99;100507.71;1753585;81;21015;-79
2022/07/27 04:07:12;;;;;;;5.37;4.67;;;;;;;15.78;79.17;100513.59;1751628;81;21756;-79
2022/07/27 04:09:39;;;;;;;4.75;3.70;;;;;;;15.82;79.35;100510.70;1753097;81;21051;-79
2022/07/27 04:12:07;;;;;;;5.92;4.08;;;;;;;15.87;79.39;100505.60;1754778;81;21058;-79
2022/07/27 04:14:34;;;;;;;4.33;3.90;;;;;;;15.92;79.38;100500.91;1749950;81;21573;-79
2022/07/27 04:17:01;;;;;;;5.28;4.22;;;;;;;15.92;79.20;100499.11;1754613;79;21015;-79
2022/07/27 04:19:28;;;;;;;5.17;4.22;;;;;;;15.94;79.10;100498.56;1755218;81;21095;-79
2022/07/27 04:21:56;;;;;;;4.92;4.08;;;;;;;15.95;79.06;100495.45;1754880;81;21034;-79
2022/07/27 04:24:23;;;;;;;4.80;4.40;;;;;;;15.97;79.23;100497.53;1756716;81;21024;-79
2022/07/27 04:26:50;;;;;;;5.42;4.12;;;;;;;16.01;79.28;100500.37;1745972;81;21110;-79
2022/07/27 04:29:17;;;;;;;4.40;4.00;;;;;;;16.03;79.18;100503.78;1734381;81;21463;-79
2022/07/27 04:31:44;;;;;;;5.00;3.72;;;;;;;16.06;79.02;100505.77;1734180;81;21301;-79
2022/07/27 04:34:12;;;;;;;4.42;3.90;;;;;;;16.07;79.08;100501.33;1738686;81;21664;-79
2022/07/27 04:36:39;;;;;;;7.37;4.17;;;;;;;16.08;79.05;100510.98;1756707;80;21076;-79
2022/07/27 04:39:06;;;;;;;4.30;3.87;;;;;;;16.08;78.93;100512.30;1753448;81;21038;-79
2022/07/27 04:41:33;;;;;;;4.78;4.28;;;;;;;16.10;78.87;100516.16;1754923;81;21063;-81
2022/07/27 04:44:00;;;;;;;6.03;3.60;;;;;;;16.08;78.81;100517.59;1749932;81;21348;-81
2022/07/27 04:46:32;;;;;;;6.00;3.87;;;;;;;16.09;78.86;100513.15;1752386;81;21045;-81
2022/07/27 04:48:57;;;;;;;4.97;4.15;;;;;;;16.10;78.86;100516.16;1757409;81;21040;-81
2022/07/27 04:51:24;;;;;;;5.83;4.00;;;;;;;16.09;78.85;100528.54;1750378;81;21059;-81
2022/07/27 04:53:51;;;;;;;6.33;3.77;;;;;;;16.10;78.85;100530.70;1754853;81;21031;-81
2022/07/27 04:56:18;;;;;;;8.30;4.47;;;;;;;16.09;78.86;100531.19;1752030;81;21107;-81
2022/07/27 04:58:46;;;;;;;5.55;3.87;;;;;;;16.13;79.14;100534.49;1743635;81;20931;-81
2022/07/27 05:01:13;;;;;;;5.78;3.67;;;;;;;16.16;79.20;100538.31;1755727;81;21047;-81
2022/07/27 05:03:41;;;;;;;4.28;3.27;;;;;;;16.18;79.19;100543.02;1761034;81;21627;-80
2022/07/27 05:06:08;;;;;;;4.17;3.00;;;;;;;16.19;79.31;100535.00;1754887;81;21074;-81
2022/07/27 05:08:36;;;;;;;4.58;2.72;;;;;;;16.25;78.89;100541.25;1740732;81;21305;-81
2022/07/27 05:11:03;;;;;;;5.50;2.67;;;;;;;16.25;78.68;100546.55;1761412;81;20969;-81
2022/07/27 05:13:30;;;;;;;4.37;2.90;;;;;;;16.24;78.60;100549.30;1736425;81;21037;-81
2022/07/27 05:15:57;;;;;;;4.62;2.67;;;;;;;16.26;78.62;100554.84;1734451;81;21057;-81
2022/07/27 05:18:25;;;;;;;5.67;3.00;;;;;;;16.30;78.64;100554.22;1758969;81;21157;-81
2022/07/27 05:20:52;;;;;;;4.85;2.83;;;;;;;16.33;78.33;100559.80;1755291;81;22079;-81
2022/07/27 05:23:19;;;;;;;5.12;2.85;;;;;;;16.36;78.35;100562.27;1748941;81;21033;-81
2022/07/27 05:25:46;;;;;;;5.60;2.40;;;;;;;16.40;78.39;100569.91;1761211;81;21058;-81
2022/07/27 05:28:13;;;;;;;4.03;2.67;;;;;;;16.44;78.03;100561.34;1754993;81;21011;-81
2022/07/27 05:30:40;;;;;;;4.58;2.62;;;;;;;16.45;77.85;100568.33;1754894;81;21082;-81
2022/07/27 05:33:07;;;;;;;4.78;2.72;;;;;;;16.47;77.78;100565.98;1754496;81;22137;-80
2022/07/27 05:35:34;;;;;;;3.55;2.58;;;;;;;16.48;77.59;100568.99;1759657;81;21060;-81
2022/07/27 05:38:01;;;;;;;3.12;2.77;;;;;;;16.49;77.66;100566.75;1751374;81;21378;-82
2022/07/27 05:40:28;;;;;;;5.05;3.67;;;;;;;16.55;77.44;100570.83;1752730;81;21035;-82
2022/07/27 05:42:56;;;;;;;5.50;4.00;;;;;;;16.55;77.44;100570.83;1757530;80;21059;-79
2022/07/27 05:45:23;;;;;;;5.95;3.80;;;;;;;16.56;77.45;100579.61;1761155;80;21891;-84
2022/07/27 05:47:50;;;;;;;6.20;3.72;;;;;;;16.56;77.48;100578.28;1753366;81;21055;-81
2022/07/27 05:50:17;;;;;;;7.03;4.55;;;;;;;16.57;77.54;100582.18;1757855;81;21019;-84
2022/07/27 05:52:44;;;;;;;8.20;4.83;;;;;;;16.61;77.61;100585.48;1758997;81;21064;-81
2022/07/27 05:55:12;;;;;;;8.98;6.45;;;;;;;16.62;77.61;100589.34;1753930;79;21553;-79
2022/07/27 05:57:40;;;;;;;11.20;8.40;;;;;;;16.65;77.67;100592.28;1754140;79;21087;-80
2022/07/27 06:00:09;;;;;;;13.58;8.43;;;;;;;16.67;77.74;100593.91;1755379;79;21102;-80
2022/07/27 06:02:40;;;;;;;10.15;7.30;;;;;;;16.69;77.56;100605.73;1753777;81;21058;-78
2022/07/27 06:05:08;;;;;;;10.85;7.45;;;;;;;16.69;77.56;100605.73;1758699;79;21039;-82
2022/07/27 06:10:21;;;;;;;9.45;7.50;;;;;;;16.62;77.58;100607.02;1753258;81;21915;-78
2022/07/27 06:12:48;;;;;;;9.18;7.05;;;;;;;16.63;77.97;100614.05;1752592;81;21032;-78
2022/07/27 06:15:16;;;;;;;11.50;8.03;;;;;;;16.67;78.09;100615.55;1759786;81;21087;-76
2022/07/27 06:17:45;;;;;;;8.78;7.30;;;;;;;16.70;78.02;100614.05;1756516;81;21004;-78
2022/07/27 06:20:12;;;;;;;11.18;8.63;;;;;;;16.71;77.97;100617.94;1755274;81;21432;-77
2022/07/27 06:22:52;;;;;;;9.33;8.05;;;;;;;16.69;77.87;100615.84;1749878;81;21584;-82
2022/07/27 06:25:21;;;;;;;13.08;8.20;;;;;;;16.68;77.80;100615.92;1755936;81;21787;-78
2022/07/27 06:27:49;;;;;;;16.35;8.63;;;;;;;16.63;77.89;100608.75;1756184;81;21022;-79
2022/07/27 06:30:19;;;;;;;8.85;7.42;;;;;;;16.66;77.93;100626.61;1754245;81;21063;-76
2022/07/27 06:32:46;;;;;;;9.50;7.30;;;;;;;16.66;77.93;100626.61;1756038;79;21039;-77
2022/07/27 06:35:13;;;;;;;12.53;7.50;;;;;;;16.64;77.94;100617.91;1753698;81;21971;-77
2022/07/27 06:37:47;;;;;;;9.45;7.53;;;;;;;16.64;77.94;100617.91;1756710;81;21023;-77
2022/07/27 06:40:13;;;;;;;10.13;7.67;;;;;;;16.67;78.13;100615.55;1755833;80;22729;-77
2022/07/27 06:42:41;;;;;;;10.48;7.10;;;;;;;16.71;78.23;100615.29;1753659;79;21071;-77
2022/07/27 06:45:09;;;;;;;9.78;6.45;;;;;;;16.75;77.94;100616.43;1754450;79;21054;-78
2022/07/27 06:47:38;;;;;;;9.63;6.60;;;;;;;16.78;78.19;100622.42;1756005;80;21120;-78
2022/07/27 06:50:07;;;;;;;10.15;6.62;;;;;;;16.78;78.19;100622.42;1754854;81;21541;-77
2022/07/27 06:52:34;;;;;;;9.15;5.80;;;;;;;16.85;78.23;100610.53;1754252;79;21059;-77
2022/07/27 06:55:02;;;;;;;8.40;5.85;;;;;;;16.94;78.20;100617.06;1755861;81;21047;-77
2022/07/27 06:57:29;;;;;;;7.33;5.28;;;;;;;16.98;77.92;100616.41;1755895;81;21035;-77
2022/07/27 06:59:56;;;;;;;10.30;5.40;;;;;;;17.04;77.87;100619.52;1754698;79;21212;-78
2022/07/27 07:02:23;;;;;;;6.17;4.65;;;;;;;17.15;77.57;100620.20;1754624;81;21116;-76
2022/07/27 07:04:50;;;;;;;7.60;4.37;;;;;;;17.15;77.57;100620.20;1756540;80;21043;-77
2022/07/27 07:07:17;;;;;;;8.33;4.62;;;;;;;17.22;77.43;100618.89;1751933;79;21250;-79
2022/07/27 07:09:44;;;;;;;7.70;4.90;;;;;;;17.30;77.38;100624.57;1752997;79;21090;-78
2022/07/27 07:12:11;;;;;;;7.60;4.03;;;;;;;17.39;77.05;100624.47;1755850;81;21971;-77
2022/07/27 07:14:38;;;;;;;6.05;4.28;;;;;;;17.46;76.75;100623.16;1750251;81;21056;-76
2022/07/27 07:17:05;;;;;;;6.85;3.75;;;;;;;17.56;76.65;100619.44;1748930;81;21576;-76
2022/07/27 07:19:32;;;;;;;6.92;3.10;;;;;;;17.68;76.50;100621.34;1735481;81;21476;-77
2022/07/27 07:21:59;;;;;;;5.67;3.25;;;;;;;17.81;76.14;100619.62;1727444;81;21055;-77
2022/07/27 07:24:28;;;;;;;5.55;2.62;;;;;;;17.95;75.81;100616.56;1724562;81;21103;-77
2022/07/27 07:26:55;;;;;;;7.08;2.62;;;;;;;18.12;75.39;100620.78;1730016;81;21032;-78
2022/07/27 07:29:22;;;;;;;11.55;2.83;;;;;;;18.25;74.76;100618.55;1735820;81;21044;-77
2022/07/27 07:31:50;;;;;;;4.78;2.40;;;;;;;18.40;74.43;100622.47;1733986;81;39678;-76
2022/07/27 07:34:17;;;;;;;6.70;2.02;;;;;;;18.53;73.75;100617.20;1729090;81;21059;-78
2022/07/27 07:36:46;;;;;;;6.45;2.10;;;;;;;18.60;72.89;100619.84;1741029;81;21152;-78
2022/07/27 07:39:13;;;;;;;12.75;2.27;;;;;;;18.64;72.23;100623.48;1732949;81;21099;-80
2022/07/27 07:41:40;;;;;;;8.25;2.25;;;;;;;18.70;71.88;100623.55;1738758;81;21075;-79
2022/07/27 07:44:08;;;;;;;5.22;1.62;;;;;;;18.69;70.85;100635.14;1726517;81;21114;-79
2022/07/27 07:46:35;;;;;;;7.53;2.10;;;;;;;18.68;70.55;100642.74;1744226;81;22019;-81
2022/07/27 07:49:04;;;;;;;7.60;1.90;;;;;;;18.74;70.19;100646.34;1728648;81;21549;-80
2022/07/27 07:51:31;;;;;;;8.43;2.00;;;;;;;18.84;70.01;100647.39;1730603;81;21052;-79
2022/07/27 07:53:58;;;;;;;6.50;1.77;;;;;;;18.93;69.67;100652.11;1730053;81;21099;-84
2022/07/27 07:56:25;;;;;;;4.87;1.57;;;;;;;19.05;69.18;100645.58;1741477;81;20968;-81
2022/07/27 07:58:52;;;;;;;6.80;2.15;;;;;;;19.16;68.99;100649.20;1745752;81;21611;-81
2022/07/27 08:01:19;;;;;;;7.45;2.15;;;;;;;19.25;68.32;100653.02;1736386;81;21109;-82
2022/07/27 08:03:47;;;;;;;8.43;2.62;;;;;;;19.29;67.74;100659.84;1741754;81;20968;-80
2022/07/27 08:06:14;;;;;;;6.53;1.75;;;;;;;19.25;67.18;100656.16;1751781;81;21033;-79
2022/07/27 08:08:41;;;;;;;7.70;1.60;;;;;;;19.22;66.89;100653.23;1747472;81;21027;-85
2022/07/27 08:11:08;;;;;;;8.20;2.00;;;;;;;19.21;66.61;100651.55;1729617;81;21076;-85
2022/07/27 08:13:35;;;;;;;5.62;1.80;;;;;;;19.23;66.57;100658.91;1736801;81;21479;-77
2022/07/27 08:16:03;;;;;;;6.60;1.70;;;;;;;19.27;66.17;100652.92;1735615;81;21560;-87
2022/07/27 08:18:30;;;;;;;9.43;1.90;;;;;;;19.33;66.04;100651.16;1759231;81;21053;-85
2022/07/27 08:20:57;;;;;;;8.10;1.70;;;;;;;19.36;65.70;100645.62;1731845;81;20983;-77
2022/07/27 08:23:28;;;;;;;3.85;1.67;;;;;;;19.40;65.28;100655.11;1763759;81;21027;-81
2022/07/27 08:25:55;;;;;;;4.25;1.35;;;;;;;19.45;65.01;100658.27;1792209;80;21264;-77
2022/07/27 08:28:22;;;;;;;6.65;1.52;;;;;;;19.47;64.45;100655.03;1761021;81;21105;-78
2022/07/27 08:30:49;;;;;;;4.35;1.32;;;;;;;19.50;64.28;100649.98;1760640;81;21054;-77
2022/07/27 08:33:17;;;;;;;4.22;1.60;;;;;;;19.55;63.92;100650.02;1742530;79;21030;-78
2022/07/27 08:35:45;;;;;;;5.42;1.65;;;;;;;19.65;63.71;100648.03;1752014;79;21034;-78
2022/07/27 08:38:12;;;;;;;6.78;1.60;;;;;;;19.74;63.61;100642.11;1755877;81;21504;-79
2022/07/27 08:40:40;;;;;;;6.92;1.45;;;;;;;19.85;63.48;100638.69;1773157;78;21043;-78
2022/07/27 08:43:08;;;;;;;7.85;1.52;;;;;;;19.95;63.06;100645.02;1761235;80;21029;-77
2022/07/27 08:45:36;;;;;;;7.97;1.55;;;;;;;20.06;62.67;100643.77;1773381;80;21002;-79
2022/07/27 08:48:05;;;;;;;6.33;1.15;;;;;;;20.15;62.29;100647.59;1773407;78;21564;-77
2022/07/27 08:50:34;;;;;;;6.67;1.30;;;;;;;20.27;61.85;100651.51;1773623;78;21131;-77
2022/07/27 08:53:08;;;;;;;5.25;1.05;;;;;;;20.42;61.28;100642.86;1773308;78;21257;-77
2022/07/27 08:55:38;;;;;;;4.78;1.17;;;;;;;20.57;60.94;100640.91;1773356;78;20999;-77
2022/07/27 08:58:07;;;;;;;9.85;1.40;;;;;;;20.73;60.30;100641.95;1773415;78;21888;-77
2022/07/27 09:00:37;;;;;;;4.40;1.00;;;;;;;20.85;59.62;100638.83;1773408;78;21098;-77
2022/07/27 09:03:04;;;;;;;7.72;1.40;;;;;;;20.96;59.27;100651.33;1773568;78;21171;-78
2022/07/27 09:05:31;;;;;;;6.58;1.25;;;;;;;21.02;58.75;100634.87;1773698;78;21535;-77
2022/07/27 09:08:14;;;;;;;5.62;1.37;;;;;;;21.12;58.63;100636.70;1773331;78;21508;-77
2022/07/27 09:10:42;;;;;;;7.25;1.50;;;;;;;21.28;58.43;100628.83;1773735;78;20987;-79
2022/07/27 09:13:32;;;;;;;3.75;1.45;;;;;;;21.37;57.97;100630.83;1773407;80;21583;-77
2022/07/27 09:16:06;;;;;;;7.85;1.47;;;;;;;21.45;57.40;100631.53;1769645;80;21766;-77
2022/07/27 09:18:37;;;;;;;10.05;1.60;;;;;;;21.52;57.16;100619.42;1783496;79;21524;-79
2022/07/27 09:21:21;;;;;;;3.35;1.05;;;;;;;21.69;56.95;100617.58;1776027;78;21054;-77
2022/07/27 09:23:56;;;;;;;6.15;1.40;;;;;;;21.83;56.62;100619.14;1748838;79;21016;-78
2022/07/27 09:26:26;;;;;;;4.92;1.37;;;;;;;21.95;56.06;100619.95;1789954;79;21064;-78
2022/07/27 09:28:56;;;;;;;4.22;1.50;;;;;;;22.04;55.47;100615.23;1782758;79;21271;-79
2022/07/27 09:31:24;;;;;;;9.48;1.55;;;;;;;22.20;54.77;100628.20;1782390;79;21064;-78
2022/07/27 09:33:55;;;;;;;4.55;1.10;;;;;;;22.17;53.75;100626.59;1782645;78;21253;-78
2022/07/27 09:36:25;;;;;;;4.35;1.30;;;;;;;22.08;53.21;100635.34;1770282;80;21542;-77
2022/07/27 09:39:04;;;;;;;5.15;1.45;;;;;;;22.01;52.63;100628.33;1770352;78;21618;-77
2022/07/27 09:41:47;;;;;;;4.00;1.10;;;;;;;21.98;52.16;100625.08;1764306;79;21199;-79
2022/07/27 09:44:15;;;;;;;5.22;1.40;;;;;;;22.05;52.15;100620.42;1778830;79;20983;-77
2022/07/27 09:46:47;;;;;;;6.95;1.62;;;;;;;22.16;52.08;100624.05;1782599;80;21033;-77
2022/07/27 09:49:32;;;;;;;5.92;1.20;;;;;;;22.25;51.50;100627.31;1782074;79;21540;-77
2022/07/27 09:52:02;;;;;;;2.85;0.78;;;;;;;22.24;50.94;100625.62;1749627;81;21561;-77
2022/07/27 09:54:44;;;;;;;2.30;0.88;;;;;;;22.20;50.44;100630.37;1764554;81;21104;-77
2022/07/27 09:57:11;;;;;;;2.62;0.93;;;;;;;22.32;50.59;100626.34;1762377;81;21007;-77
2022/07/27 09:59:38;;;;;;;3.95;1.00;;;;;;;22.52;50.53;100620.66;1795803;79;21057;-78
2022/07/27 10:02:05;;;;;;;3.65;0.75;;;;;;;22.73;49.78;100630.05;1754665;80;21008;-77
2022/07/27 10:04:33;;;;;;;5.22;1.02;;;;;;;22.73;48.92;100634.90;1767899;79;21590;-77
2022/07/27 10:07:01;;;;;;;3.00;0.80;;;;;;;22.67;48.41;100626.91;1734840;81;21139;-77
2022/07/27 10:09:30;;;;;;;2.85;1.00;;;;;;;22.64;48.03;100626.30;1779144;80;21578;-78
2022/07/27 10:11:58;;;;;;;4.20;0.80;;;;;;;22.60;47.28;100628.88;1773131;79;21559;-78
2022/07/27 10:14:25;;;;;;;4.53;0.85;;;;;;;22.39;47.09;100621.70;1739407;81;20919;-79
2022/07/27 10:16:54;;;;;;;3.77;0.80;;;;;;;22.36;47.30;100619.26;1793448;78;21045;-78
2022/07/27 10:19:44;;;;;;;4.65;0.80;;;;;;;22.45;47.47;100619.84;1742189;81;21091;-79
2022/07/27 10:22:13;;;;;;;6.47;1.10;;;;;;;22.54;47.40;100618.72;1766910;78;21105;-79
2022/07/27 10:24:40;;;;;;;5.33;1.25;;;;;;;22.79;47.33;100619.67;1774924;78;21062;-79
2022/07/27 10:27:30;;;;;;;3.27;0.90;;;;;;;23.07;47.20;100611.50;1786566;80;20927;-79
2022/07/27 10:29:56;;;;;;;2.62;0.72;;;;;;;23.43;46.95;100622.66;1783276;80;20983;-78
2022/07/27 10:32:30;;;;;;;2.15;0.70;;;;;;;23.66;46.14;100619.28;1776635;80;21102;-77
2022/07/27 10:34:58;;;;;;;3.35;0.88;;;;;;;23.66;45.52;100608.58;1734079;80;20911;-77
2022/07/27 10:37:31;;;;;;;3.30;0.82;;;;;;;23.46;45.24;100617.53;1786773;80;21276;-78
2022/07/27 10:43:21;;;;;;;4.85;1.10;;;;;;;23.93;45.02;100616.02;1784485;80;21305;-78
2022/07/27 10:45:50;;;;;;;6.00;1.47;;;;;;;24.19;44.72;100608.31;1783410;80;21078;-78
2022/07/27 10:48:37;;;;;;;;;;;;;;;24.43;44.43;100609.72;1757744;80;21014;-76
2022/07/27 10:51:07;;;;;;;2.65;0.80;;;;;;;24.22;43.26;100613.39;1784485;80;20167;-78
2022/07/27 10:53:41;;;;;;;3.70;0.80;;;;;;;23.82;42.89;100622.33;1784477;80;21587;-78
2022/07/27 10:56:09;;;;;;;3.33;0.95;;;;;;;23.64;43.06;100607.89;1752559;80;21067;-78
2022/07/27 10:58:41;;;;;;;2.47;0.78;;;;;;;23.77;43.66;100609.84;1781206;80;21102;-77
2022/07/27 11:01:08;;;;;;;2.87;0.85;;;;;;;23.83;43.62;100616.47;1784361;80;20999;-78
2022/07/27 11:03:38;;;;;;;5.65;1.02;;;;;;;23.78;43.24;100620.92;1786952;80;21049;-77
2022/07/27 11:06:11;;;;;;;4.83;1.02;;;;;;;23.71;43.16;100616.24;1783568;80;21646;-78
2022/07/27 11:08:42;;;;;;;4.95;1.00;;;;;;;23.59;42.90;100611.47;1789540;80;21030;-78
2022/07/27 11:11:16;;;;;;;5.65;1.17;;;;;;;23.50;42.96;100623.83;1784472;80;21812;-78
2022/07/27 11:13:46;;;;;;;4.97;1.20;;;;;;;23.47;42.96;100624.56;1762265;80;21045;-78
2022/07/27 11:16:15;;;;;;;5.25;1.00;;;;;;;23.31;42.70;100613.89;1782911;80;21468;-78
2022/07/27 11:18:45;;;;;;;4.12;1.15;;;;;;;23.18;42.70;100610.58;1761550;80;21041;-78
2022/07/27 11:21:26;;;;;;;4.20;0.80;;;;;;;23.07;42.79;100618.19;1763622;80;21046;-79
2022/07/27 11:24:12;;;;;;;5.33;0.90;;;;;;;22.94;42.71;100622.85;1782604;80;21127;-78
2022/07/27 11:26:51;;;;;;;4.10;0.88;;;;;;;22.83;42.85;100625.10;1774890;80;21053;-76
2022/07/27 11:29:21;;;;;;;6.53;1.20;;;;;;;22.79;42.85;100622.84;1780164;80;21092;-81
2022/07/27 11:31:53;;;;;;;6.25;1.20;;;;;;;22.66;42.67;100636.38;1790386;80;21046;-79
2022/07/27 11:34:33;;;;;;;3.42;0.95;;;;;;;22.60;42.92;100642.24;1787755;80;21053;-82
2022/07/27 11:37:01;;;;;;;;;;;;;;;22.54;42.50;100636.08;1782633;79;21056;-78
2022/07/27 11:39:32;;;;;;;4.30;0.80;;;;;;;22.40;42.41;100643.41;1771680;80;20209;-78
2022/07/27 11:42:01;;;;;;;3.30;1.07;;;;;;;22.42;42.88;100641.94;1769213;78;21071;-78